Time,TemperatureF,DewpointF,PressureIn,WindDirection,WindDirectionDegrees,WindSpeedMPH,WindSpeedGustMPH,Humidity,HourlyPrecipIn,Conditions,Clouds,dailyrainin,SoftwareType,DateUTC
2013-02-27 00:01:00,26.0,-99.9,-100.00,North,349,7.0,10.0,-999,0.00,,,-99.99,,2013-02-27 07:01:00,
2013-02-27 00:12:00,26.0,-99.9,-100.00,North,349,7.0,10.0,-999,0.00,,,-99.99,,2013-02-27 07:12:00,
2013-02-27 00:22:00,26.0,-99.9,-100.00,NNW,346,4.0,9.0,-999,0.00,,,-99.99,,2013-02-27 07:22:00,
2013-02-27 00:32:00,25.0,-99.9,-100.00,NW,323,4.0,10.0,-999,0.00,,,-99.99,,2013-02-27 07:32:00,
2013-02-27 00:42:00,25.0,-99.9,-100.00,NW,323,4.0,10.0,-999,0.00,,,-99.99,,2013-02-27 07:42:00,
2013-02-27 00:52:00,25.0,-99.9,-100.00,NNW,340,4.0,8.0,-999,0.00,,,-99.99,,2013-02-27 07:52:00,
2013-02-27 01:01:00,25.0,-99.9,-100.00,NNW,328,4.0,6.0,-999,0.00,,,-99.99,,2013-02-27 08:01:00,
2013-02-27 01:12:00,25.0,-99.9,-100.00,NNW,328,4.0,6.0,-999,0.00,,,-99.99,,2013-02-27 08:12:00,
2013-02-27 01:22:00,25.0,-99.9,-100.00,NW,319,2.0,5.0,-999,0.00,,,-99.99,,2013-02-27 08:22:00,
2013-02-27 01:32:00,25.0,-99.9,-100.00,NNW,335,5.0,7.0,-999,0.00,,,-99.99,,2013-02-27 08:32:00,
2013-02-27 01:42:00,25.0,-99.9,-100.00,NNW,335,5.0,7.0,-999,0.00,,,-99.99,,2013-02-27 08:42:00,
2013-02-27 01:53:00,25.0,-99.9,-100.00,West,281,1.0,5.0,-999,0.00,,,-99.99,,2013-02-27 08:53:00,
2013-02-27 02:02:00,25.0,-99.9,-100.00,North,0,0.0,0.0,-999,0.00,,,-99.99,,2013-02-27 09:02:00,
2013-02-27 02:12:00,25.0,-99.9,-100.00,North,0,0.0,0.0,-999,0.00,,,-99.99,,2013-02-27 09:12:00,
2013-02-27 02:22:00,25.0,-99.9,-100.00,NNW,328,4.0,6.0,-999,0.00,,,-99.99,,2013-02-27 09:22:00,
2013-02-27 02:32:00,25.0,-99.9,-100.00,NNW,335,3.0,8.0,-999,0.00,,,-99.99,,2013-02-27 09:32:00,
2013-02-27 02:42:00,25.0,-99.9,-100.00,NNW,335,3.0,8.0,-999,0.00,,,-99.99,,2013-02-27 09:42:00,
2013-02-27 02:52:00,25.0,-99.9,-100.00,North,349,3.0,6.0,-999,0.00,,,-99.99,,2013-02-27 09:52:00,
2013-02-27 03:01:00,25.0,-99.9,-100.00,NNW,328,2.0,5.0,-999,0.00,,,-99.99,,2013-02-27 10:01:00,
2013-02-27 03:13:00,25.0,-99.9,-100.00,NNW,328,2.0,5.0,-999,0.00,,,-99.99,,2013-02-27 10:13:00,
2013-02-27 03:22:00,25.0,-99.9,-100.00,North,359,3.0,7.0,-999,0.00,,,-99.99,,2013-02-27 10:22:00,
2013-02-27 03:33:00,25.0,-99.9,-100.00,NNW,340,1.0,6.0,-999,0.00,,,-99.99,,2013-02-27 10:33:00,
2013-02-27 03:42:00,25.0,-99.9,-100.00,NNW,340,1.0,6.0,-999,0.00,,,-99.99,,2013-02-27 10:42:00,
2013-02-27 03:53:00,25.0,-99.9,-100.00,North,1,3.0,7.0,-999,0.00,,,-99.99,,2013-02-27 10:53:00,
2013-02-27 04:03:00,25.0,-99.9,-100.00,North,0,3.0,8.0,-999,0.00,,,-99.99,,2013-02-27 11:03:00,
2013-02-27 04:12:00,25.0,-99.9,-100.00,North,0,3.0,8.0,-999,0.00,,,-99.99,,2013-02-27 11:12:00,
2013-02-27 04:22:00,25.0,-99.9,-100.00,NNW,347,4.0,7.0,-999,0.00,,,-99.99,,2013-02-27 11:22:00,
2013-02-27 04:32:00,25.0,-99.9,-100.00,NNW,336,1.0,7.0,-999,0.00,,,-99.99,,2013-02-27 11:32:00,
2013-02-27 04:42:00,25.0,-99.9,-100.00,NNW,336,1.0,7.0,-999,0.00,,,-99.99,,2013-02-27 11:42:00,
2013-02-27 04:52:00,25.0,-99.9,-100.00,North,6,5.0,7.0,-999,0.00,,,-99.99,,2013-02-27 11:52:00,
2013-02-27 05:02:00,25.0,-99.9,-100.00,North,0,0.0,0.0,-999,0.00,,,-99.99,,2013-02-27 12:02:00,
2013-02-27 05:13:00,25.0,-99.9,-100.00,North,0,0.0,0.0,-999,0.00,,,-99.99,,2013-02-27 12:13:00,
2013-02-27 05:22:00,25.0,-99.9,-100.00,North,0,0.0,0.0,-999,0.00,,,-99.99,,2013-02-27 12:22:00,
2013-02-27 05:33:00,25.0,-99.9,-100.00,North,0,0.0,0.0,-999,0.00,,,-99.99,,2013-02-27 12:33:00,
2013-02-27 05:42:00,25.0,-99.9,-100.00,North,0,0.0,0.0,-999,0.00,,,-99.99,,2013-02-27 12:42:00,
2013-02-27 05:53:00,25.0,-99.9,-100.00,North,0,0.0,0.0,-999,0.00,,,-99.99,,2013-02-27 12:53:00,
2013-02-27 06:03:00,25.0,-99.9,-100.00,NW,309,0.0,3.0,-999,0.00,,,-99.99,,2013-02-27 13:03:00,
2013-02-27 06:12:00,25.0,-99.9,-100.00,NW,309,0.0,3.0,-999,0.00,,,-99.99,,2013-02-27 13:12:00,
2013-02-27 06:22:00,25.0,-99.9,-100.00,NNW,347,1.0,4.0,-999,0.00,,,-99.99,,2013-02-27 13:22:00,
2013-02-27 06:32:00,25.0,-99.9,-100.00,NW,316,2.0,5.0,-999,0.00,,,-99.99,,2013-02-27 13:32:00,
2013-02-27 06:42:00,25.0,-99.9,-100.00,NW,316,2.0,5.0,-999,0.00,,,-99.99,,2013-02-27 13:42:00,
2013-02-27 06:53:00,25.0,-99.9,-100.00,North,350,5.0,8.0,-999,0.00,,,-99.99,,2013-02-27 13:53:00,
2013-02-27 07:02:00,25.0,-99.9,-100.00,North,6,3.0,6.0,-999,0.00,,,-99.99,,2013-02-27 14:02:00,
2013-02-27 07:12:00,25.0,-99.9,-100.00,North,6,3.0,6.0,-999,0.00,,,-99.99,,2013-02-27 14:12:00,
2013-02-27 07:22:00,24.0,-99.9,-100.00,North,3,3.0,7.0,-999,0.00,,,-99.99,,2013-02-27 14:22:00,
2013-02-27 07:32:00,24.0,-99.9,-100.00,North,359,1.0,4.0,-999,0.00,,,-99.99,,2013-02-27 14:32:00,
2013-02-27 07:42:00,24.0,-99.9,-100.00,North,359,1.0,4.0,-999,0.00,,,-99.99,,2013-02-27 14:42:00,
2013-02-27 07:53:00,24.0,-99.9,-100.00,North,0,0.0,0.0,-999,0.00,,,-99.99,,2013-02-27 14:53:00,
2013-02-27 08:02:00,25.0,-99.9,-100.00,NNE,13,2.0,6.0,-999,0.00,,,-99.99,,2013-02-27 15:02:00,
2013-02-27 08:13:00,25.0,-99.9,-100.00,NNE,13,2.0,6.0,-999,0.00,,,-99.99,,2013-02-27 15:13:00,
2013-02-27 08:23:00,25.0,-99.9,-100.00,North,356,5.0,7.0,-999,0.00,,,-99.99,,2013-02-27 15:23:00,
2013-02-27 08:32:00,25.0,-99.9,-100.00,NNW,346,5.0,7.0,-999,0.00,,,-99.99,,2013-02-27 15:32:00,
2013-02-27 08:42:00,25.0,-99.9,-100.00,NNW,346,5.0,7.0,-999,0.00,,,-99.99,,2013-02-27 15:42:00,
2013-02-27 08:52:00,25.0,-99.9,-100.00,North,359,5.0,6.0,-999,0.00,,,-99.99,,2013-02-27 15:52:00,
2013-02-27 09:02:00,25.0,-99.9,-100.00,North,359,5.0,6.0,-999,0.00,,,-99.99,,2013-02-27 16:02:00,
2013-02-27 09:12:00,25.0,-99.9,-100.00,North,359,5.0,6.0,-999,0.00,,,-99.99,,2013-02-27 16:12:00,
2013-02-27 09:22:00,26.0,-99.9,-100.00,North,359,2.0,6.0,-999,0.00,,,-99.99,,2013-02-27 16:22:00,
2013-02-27 09:32:00,27.0,-99.9,-100.00,North,356,3.0,6.0,-999,0.00,,,-99.99,,2013-02-27 16:32:00,
2013-02-27 09:42:00,27.0,-99.9,-100.00,North,356,3.0,6.0,-999,0.00,,,-99.99,,2013-02-27 16:42:00,
2013-02-27 09:52:00,27.0,-99.9,-100.00,North,0,0.0,0.0,-999,0.00,,,-99.99,,2013-02-27 16:52:00,
2013-02-27 10:02:00,27.0,-99.9,-100.00,North,0,0.0,0.0,-999,0.00,,,-99.99,,2013-02-27 17:02:00,
2013-02-27 10:11:00,27.0,-99.9,-100.00,North,0,0.0,0.0,-999,0.00,,,-99.99,,2013-02-27 17:11:00,
2013-02-27 10:22:00,27.0,-99.9,-100.00,North,0,0.0,0.0,-999,0.00,,,-99.99,,2013-02-27 17:22:00,
2013-02-27 10:32:00,27.0,-99.9,-100.00,North,0,0.0,0.0,-999,0.00,,,-99.99,,2013-02-27 17:32:00,
2013-02-27 10:42:00,27.0,-99.9,-100.00,North,0,0.0,0.0,-999,0.00,,,-99.99,,2013-02-27 17:42:00,
2013-02-27 10:52:00,26.0,-99.9,-100.00,North,0,4.0,6.0,-999,0.00,,,-99.99,,2013-02-27 17:52:00,
2013-02-27 11:02:00,27.0,-99.9,-100.00,North,0,0.0,0.0,-999,0.00,,,-99.99,,2013-02-27 18:02:00,
2013-02-27 11:11:00,27.0,-99.9,-100.00,North,0,0.0,0.0,-999,0.00,,,-99.99,,2013-02-27 18:11:00,
2013-02-27 11:22:00,28.0,-99.9,-100.00,North,353,1.0,6.0,-999,0.00,,,-99.99,,2013-02-27 18:22:00,
2013-02-27 11:32:00,27.0,-99.9,-100.00,North,0,0.0,0.0,-999,0.00,,,-99.99,,2013-02-27 18:32:00,
2013-02-27 11:42:00,27.0,-99.9,-100.00,North,0,0.0,0.0,-999,0.00,,,-99.99,,2013-02-27 18:42:00,
2013-02-27 11:52:00,28.0,-99.9,-100.00,North,357,1.0,3.0,-999,0.00,,,-99.99,,2013-02-27 18:52:00,
2013-02-27 12:02:00,28.0,-99.9,-100.00,North,10,1.0,5.0,-999,0.00,,,-99.99,,2013-02-27 19:02:00,
2013-02-27 12:12:00,28.0,-99.9,-100.00,North,10,1.0,5.0,-999,0.00,,,-99.99,,2013-02-27 19:12:00,
2013-02-27 12:22:00,29.0,-99.9,-100.00,North,0,0.0,0.0,-999,0.00,,,-99.99,,2013-02-27 19:22:00,
2013-02-27 12:33:00,31.0,-99.9,-100.00,North,359,0.0,3.0,-999,0.00,,,-99.99,,2013-02-27 19:33:00,
2013-02-27 12:42:00,31.0,-99.9,-100.00,North,359,0.0,3.0,-999,0.00,,,-99.99,,2013-02-27 19:42:00,
2013-02-27 12:52:00,31.0,-99.9,-100.00,North,3,0.0,3.0,-999,0.00,,,-99.99,,2013-02-27 19:52:00,
2013-02-27 13:02:00,31.0,-99.9,-100.00,North,0,0.0,0.0,-999,0.00,,,-99.99,,2013-02-27 20:02:00,
2013-02-27 13:12:00,31.0,-99.9,-100.00,North,0,0.0,0.0,-999,0.00,,,-99.99,,2013-02-27 20:12:00,
2013-02-27 13:22:00,30.0,-99.9,-100.00,North,0,0.0,0.0,-999,0.00,,,-99.99,,2013-02-27 20:22:00,
2013-02-27 13:32:00,32.0,-99.9,-100.00,North,3,1.0,4.0,-999,0.00,,,-99.99,,2013-02-27 20:32:00,
2013-02-27 13:42:00,32.0,-99.9,-100.00,North,3,1.0,4.0,-999,0.00,,,-99.99,,2013-02-27 20:42:00,
2013-02-27 13:53:00,32.0,-99.9,-100.00,North,0,0.0,0.0,-999,0.00,,,-99.99,,2013-02-27 20:53:00,
2013-02-27 14:02:00,31.0,-99.9,-100.00,North,0,0.0,0.0,-999,0.00,,,-99.99,,2013-02-27 21:02:00,
2013-02-27 14:12:00,31.0,-99.9,-100.00,North,0,0.0,0.0,-999,0.00,,,-99.99,,2013-02-27 21:12:00,
2013-02-27 14:22:00,31.0,-99.9,-100.00,North,0,0.0,0.0,-999,0.00,,,-99.99,,2013-02-27 21:22:00,
2013-02-27 14:32:00,32.0,-99.9,-100.00,North,0,0.0,0.0,-999,0.00,,,-99.99,,2013-02-27 21:32:00,
2013-02-27 14:42:00,32.0,-99.9,-100.00,North,0,0.0,0.0,-999,0.00,,,-99.99,,2013-02-27 21:42:00,
2013-02-27 14:52:00,31.0,-99.9,-100.00,North,0,0.0,0.0,-999,0.00,,,-99.99,,2013-02-27 21:52:00,
2013-02-27 15:02:00,30.0,-99.9,-100.00,North,0,0.0,0.0,-999,0.00,,,-99.99,,2013-02-27 22:02:00,
2013-02-27 15:12:00,30.0,-99.9,-100.00,North,0,0.0,0.0,-999,0.00,,,-99.99,,2013-02-27 22:12:00,
2013-02-27 15:22:00,35.0,-99.9,-100.00,North,0,0.0,0.0,-999,0.00,,,-99.99,,2013-02-27 22:22:00,
2013-02-27 15:32:00,32.0,-99.9,-100.00,North,0,0.0,0.0,-999,0.00,,,-99.99,,2013-02-27 22:32:00,
2013-02-27 15:42:00,32.0,-99.9,-100.00,North,0,0.0,0.0,-999,0.00,,,-99.99,,2013-02-27 22:42:00,
2013-02-27 15:52:00,33.0,-99.9,-100.00,North,0,0.0,0.0,-999,0.00,,,-99.99,,2013-02-27 22:52:00,
2013-02-27 16:02:00,33.0,-99.9,-100.00,North,0,0.0,0.0,-999,0.00,,,-99.99,,2013-02-27 23:02:00,
2013-02-27 16:12:00,33.0,-99.9,-100.00,North,0,0.0,0.0,-999,0.00,,,-99.99,,2013-02-27 23:12:00,
2013-02-27 16:22:00,35.0,-99.9,-100.00,North,0,0.0,0.0,-999,0.00,,,-99.99,,2013-02-27 23:22:00,
2013-02-27 16:32:00,36.0,-99.9,-100.00,North,0,0.0,0.0,-999,0.00,,,-99.99,,2013-02-27 23:32:00,
2013-02-27 16:42:00,36.0,-99.9,-100.00,North,0,0.0,0.0,-999,0.00,,,-99.99,,2013-02-27 23:42:00,
2013-02-27 16:53:00,33.0,-99.9,-100.00,North,0,0.0,0.0,-999,0.00,,,-99.99,,2013-02-27 23:53:00,
2013-02-27 17:02:00,29.0,-99.9,-100.00,North,0,0.0,0.0,-999,0.00,,,-99.99,,2013-02-28 00:02:00,
2013-02-27 17:13:00,29.0,-99.9,-100.00,North,0,0.0,0.0,-999,0.00,,,-99.99,,2013-02-28 00:13:00,
2013-02-27 17:22:00,33.0,-99.9,-100.00,North,0,0.0,0.0,-999,0.00,,,-99.99,,2013-02-28 00:22:00,
2013-02-27 17:32:00,31.0,-99.9,-100.00,North,357,1.0,3.0,-999,0.00,,,-99.99,,2013-02-28 00:32:00,
2013-02-27 17:42:00,31.0,-99.9,-100.00,North,357,1.0,3.0,-999,0.00,,,-99.99,,2013-02-28 00:42:00,
2013-02-27 17:52:00,30.0,-99.9,-100.00,North,0,0.0,0.0,-999,0.00,,,-99.99,,2013-02-28 00:52:00,
2013-02-27 18:01:00,25.0,-99.9,-100.00,North,0,0.0,0.0,-999,0.00,,,-99.99,,2013-02-28 01:01:00,
2013-02-27 18:12:00,25.0,-99.9,-100.00,North,0,0.0,0.0,-999,0.00,,,-99.99,,2013-02-28 01:12:00,
2013-02-27 18:22:00,23.0,-99.9,-100.00,North,0,0.0,0.0,-999,0.00,,,-99.99,,2013-02-28 01:22:00,
2013-02-27 18:32:00,23.0,-99.9,-100.00,North,0,0.0,0.0,-999,0.00,,,-99.99,,2013-02-28 01:32:00,
2013-02-27 18:42:00,23.0,-99.9,-100.00,North,0,0.0,0.0,-999,0.00,,,-99.99,,2013-02-28 01:42:00,
2013-02-27 18:52:00,22.0,-99.9,-100.00,North,0,0.0,0.0,-999,0.00,,,-99.99,,2013-02-28 01:52:00,
2013-02-27 19:02:00,22.0,-99.9,-100.00,North,0,0.0,0.0,-999,0.00,,,-99.99,,2013-02-28 02:02:00,
2013-02-27 19:11:00,22.0,-99.9,-100.00,North,0,0.0,0.0,-999,0.00,,,-99.99,,2013-02-28 02:11:00,
2013-02-27 19:22:00,22.0,-99.9,-100.00,North,0,0.0,0.0,-999,0.00,,,-99.99,,2013-02-28 02:22:00,
2013-02-27 19:32:00,21.0,-99.9,-100.00,North,0,0.0,0.0,-999,0.00,,,-99.99,,2013-02-28 02:32:00,
2013-02-27 19:42:00,21.0,-99.9,-100.00,North,0,0.0,0.0,-999,0.00,,,-99.99,,2013-02-28 02:42:00,
2013-02-27 19:52:00,21.0,-99.9,-100.00,North,0,0.0,0.0,-999,0.00,,,-99.99,,2013-02-28 02:52:00,
2013-02-27 20:02:00,21.0,-99.9,-100.00,North,0,0.0,0.0,-999,0.00,,,-99.99,,2013-02-28 03:02:00,
2013-02-27 20:11:00,21.0,-99.9,-100.00,North,0,0.0,0.0,-999,0.00,,,-99.99,,2013-02-28 03:11:00,
2013-02-27 20:22:00,21.0,-99.9,-100.00,North,0,0.0,0.0,-999,0.00,,,-99.99,,2013-02-28 03:22:00,
2013-02-27 20:32:00,21.0,-99.9,-100.00,North,0,0.0,0.0,-999,0.00,,,-99.99,,2013-02-28 03:32:00,
2013-02-27 20:42:00,21.0,-99.9,-100.00,North,0,0.0,0.0,-999,0.00,,,-99.99,,2013-02-28 03:42:00,
2013-02-27 20:52:00,20.0,-99.9,-100.00,North,0,0.0,0.0,-999,0.00,,,-99.99,,2013-02-28 03:52:00,
2013-02-27 21:02:00,21.0,-99.9,-100.00,North,0,0.0,0.0,-999,0.00,,,-99.99,,2013-02-28 04:02:00,
2013-02-27 21:11:00,21.0,-99.9,-100.00,North,0,0.0,0.0,-999,0.00,,,-99.99,,2013-02-28 04:11:00,
2013-02-27 21:22:00,21.0,-99.9,-100.00,North,0,0.0,0.0,-999,0.00,,,-99.99,,2013-02-28 04:22:00,
2013-02-27 21:32:00,21.0,-99.9,-100.00,North,0,0.0,0.0,-999,0.00,,,-99.99,,2013-02-28 04:32:00,
2013-02-27 21:42:00,21.0,-99.9,-100.00,North,0,0.0,0.0,-999,0.00,,,-99.99,,2013-02-28 04:42:00,
2013-02-27 21:52:00,21.0,-99.9,-100.00,North,0,0.0,0.0,-999,0.00,,,-99.99,,2013-02-28 04:52:00,
2013-02-27 22:02:00,21.0,-99.9,-100.00,North,0,0.0,0.0,-999,0.00,,,-99.99,,2013-02-28 05:02:00,
2013-02-27 22:12:00,21.0,-99.9,-100.00,North,0,0.0,0.0,-999,0.00,,,-99.99,,2013-02-28 05:12:00,
2013-02-27 22:22:00,21.0,-99.9,-100.00,North,0,0.0,0.0,-999,0.00,,,-99.99,,2013-02-28 05:22:00,
2013-02-27 22:32:00,23.0,-99.9,-100.00,North,0,0.0,0.0,-999,0.00,,,-99.99,,2013-02-28 05:32:00,
2013-02-27 22:43:00,23.0,-99.9,-100.00,North,0,0.0,0.0,-999,0.00,,,-99.99,,2013-02-28 05:43:00,
2013-02-27 22:52:00,23.0,-99.9,-100.00,North,0,0.0,0.0,-999,0.00,,,-99.99,,2013-02-28 05:52:00,
2013-02-27 23:02:00,23.0,-99.9,-100.00,North,0,0.0,0.0,-999,0.00,,,-99.99,,2013-02-28 06:02:00,
2013-02-27 23:11:00,23.0,-99.9,-100.00,North,0,0.0,0.0,-999,0.00,,,-99.99,,2013-02-28 06:11:00,
2013-02-27 23:22:00,23.0,-99.9,-100.00,North,0,0.0,0.0,-999,0.00,,,-99.99,,2013-02-28 06:22:00,
2013-02-27 23:32:00,23.0,-99.9,-100.00,North,0,0.0,0.0,-999,0.00,,,-99.99,,2013-02-28 06:32:00,
2013-02-27 23:42:00,23.0,-99.9,-100.00,North,0,0.0,0.0,-999,0.00,,,-99.99,,2013-02-28 06:42:00,
2013-02-27 23:52:00,22.0,-99.9,-100.00,North,0,0.0,0.0,-999,0.00,,,-99.99,,2013-02-28 06:52:00,